sensor_id;sensor_type;location;lat;lon;timestamp;P1;durP1;ratioP1;P2;durP2;ratioP2
25057;SDS011;13057;50.978;11.034;2022-08-25T00:01:53;5.72;;;4.10;;
25057;SDS011;13057;50.978;11.034;2022-08-25T00:04:24;9.48;;;4.82;;
25057;SDS011;13057;50.978;11.034;2022-08-25T00:06:51;12.75;;;4.88;;
25057;SDS011;13057;50.978;11.034;2022-08-25T00:09:18;10.25;;;4.32;;
25057;SDS011;13057;50.978;11.034;2022-08-25T00:11:46;18.70;;;7.38;;
25057;SDS011;13057;50.978;11.034;2022-08-25T00:14:16;15.25;;;4.53;;
25057;SDS011;13057;50.978;11.034;2022-08-25T00:16:44;12.73;;;4.47;;
25057;SDS011;13057;50.978;11.034;2022-08-25T00:19:11;18.95;;;4.22;;
25057;SDS011;13057;50.978;11.034;2022-08-25T00:21:41;8.95;;;4.70;;
25057;SDS011;13057;50.978;11.034;2022-08-25T00:24:08;17.20;;;5.40;;
25057;SDS011;13057;50.978;11.034;2022-08-25T00:26:37;19.13;;;4.80;;
25057;SDS011;13057;50.978;11.034;2022-08-25T00:29:05;11.85;;;4.70;;
25057;SDS011;13057;50.978;11.034;2022-08-25T00:31:31;17.92;;;5.00;;
25057;SDS011;13057;50.978;11.034;2022-08-25T00:33:58;10.80;;;4.30;;
25057;SDS011;13057;50.978;11.034;2022-08-25T00:36:25;11.75;;;5.10;;
25057;SDS011;13057;50.978;11.034;2022-08-25T00:38:53;9.23;;;4.95;;
25057;SDS011;13057;50.978;11.034;2022-08-25T00:41:20;19.25;;;5.25;;
25057;SDS011;13057;50.978;11.034;2022-08-25T00:43:56;12.00;;;4.38;;
25057;SDS011;13057;50.978;11.034;2022-08-25T00:46:26;13.43;;;4.80;;
25057;SDS011;13057;50.978;11.034;2022-08-25T00:48:56;10.93;;;4.97;;
25057;SDS011;13057;50.978;11.034;2022-08-25T00:51:28;13.60;;;4.60;;
25057;SDS011;13057;50.978;11.034;2022-08-25T00:54:03;10.50;;;4.72;;
25057;SDS011;13057;50.978;11.034;2022-08-25T00:56:31;14.60;;;4.60;;
25057;SDS011;13057;50.978;11.034;2022-08-25T00:58:58;7.47;;;5.13;;
25057;SDS011;13057;50.978;11.034;2022-08-25T01:01:26;10.55;;;5.28;;
25057;SDS011;13057;50.978;11.034;2022-08-25T01:03:52;12.80;;;5.40;;
25057;SDS011;13057;50.978;11.034;2022-08-25T01:06:18;7.25;;;5.25;;
25057;SDS011;13057;50.978;11.034;2022-08-25T01:08:44;9.63;;;5.53;;
25057;SDS011;13057;50.978;11.034;2022-08-25T01:11:11;8.43;;;5.35;;
25057;SDS011;13057;50.978;11.034;2022-08-25T01:13:41;15.10;;;5.65;;
25057;SDS011;13057;50.978;11.034;2022-08-25T01:16:09;9.05;;;5.25;;
25057;SDS011;13057;50.978;11.034;2022-08-25T01:18:47;11.07;;;5.82;;
25057;SDS011;13057;50.978;11.034;2022-08-25T01:21:15;7.55;;;5.25;;
25057;SDS011;13057;50.978;11.034;2022-08-25T01:23:44;11.75;;;5.80;;
25057;SDS011;13057;50.978;11.034;2022-08-25T01:26:12;12.02;;;5.53;;
25057;SDS011;13057;50.978;11.034;2022-08-25T01:28:44;10.45;;;5.53;;
25057;SDS011;13057;50.978;11.034;2022-08-25T01:31:26;7.68;;;4.63;;
25057;SDS011;13057;50.978;11.034;2022-08-25T01:33:52;13.65;;;5.72;;
25057;SDS011;13057;50.978;11.034;2022-08-25T01:36:19;15.32;;;5.55;;
25057;SDS011;13057;50.978;11.034;2022-08-25T01:38:46;11.70;;;5.88;;
25057;SDS011;13057;50.978;11.034;2022-08-25T01:41:15;9.77;;;5.47;;
25057;SDS011;13057;50.978;11.034;2022-08-25T01:43:46;9.38;;;5.32;;
25057;SDS011;13057;50.978;11.034;2022-08-25T01:46:12;8.73;;;5.30;;
25057;SDS011;13057;50.978;11.034;2022-08-25T01:48:38;14.70;;;5.57;;
25057;SDS011;13057;50.978;11.034;2022-08-25T01:51:04;9.05;;;5.80;;
25057;SDS011;13057;50.978;11.034;2022-08-25T01:53:30;11.57;;;5.93;;
25057;SDS011;13057;50.978;11.034;2022-08-25T01:55:56;9.60;;;5.90;;
25057;SDS011;13057;50.978;11.034;2022-08-25T01:58:27;15.18;;;6.15;;
25057;SDS011;13057;50.978;11.034;2022-08-25T02:00:56;12.00;;;6.30;;
25057;SDS011;13057;50.978;11.034;2022-08-25T02:03:24;11.20;;;6.40;;
25057;SDS011;13057;50.978;11.034;2022-08-25T02:05:51;8.65;;;5.90;;
25057;SDS011;13057;50.978;11.034;2022-08-25T02:08:18;13.90;;;6.38;;
25057;SDS011;13057;50.978;11.034;2022-08-25T02:10:44;11.90;;;6.20;;
25057;SDS011;13057;50.978;11.034;2022-08-25T02:13:10;8.88;;;6.35;;
25057;SDS011;13057;50.978;11.034;2022-08-25T02:15:39;14.02;;;5.63;;
25057;SDS011;13057;50.978;11.034;2022-08-25T02:18:07;10.20;;;6.30;;
25057;SDS011;13057;50.978;11.034;2022-08-25T02:20:33;14.52;;;6.88;;
25057;SDS011;13057;50.978;11.034;2022-08-25T02:22:59;13.27;;;6.15;;
25057;SDS011;13057;50.978;11.034;2022-08-25T02:25:24;14.98;;;6.68;;
25057;SDS011;13057;50.978;11.034;2022-08-25T02:27:50;11.68;;;6.25;;
25057;SDS011;13057;50.978;11.034;2022-08-25T02:30:16;17.65;;;6.55;;
25057;SDS011;13057;50.978;11.034;2022-08-25T02:32:42;13.13;;;6.57;;
25057;SDS011;13057;50.978;11.034;2022-08-25T02:35:08;14.07;;;6.75;;
25057;SDS011;13057;50.978;11.034;2022-08-25T02:37:34;10.50;;;6.60;;
25057;SDS011;13057;50.978;11.034;2022-08-25T02:40:01;8.73;;;6.95;;
25057;SDS011;13057;50.978;11.034;2022-08-25T02:42:28;17.40;;;6.90;;
25057;SDS011;13057;50.978;11.034;2022-08-25T02:44:53;16.08;;;6.50;;
25057;SDS011;13057;50.978;11.034;2022-08-25T02:47:19;14.98;;;7.32;;
25057;SDS011;13057;50.978;11.034;2022-08-25T02:49:47;12.63;;;6.40;;
25057;SDS011;13057;50.978;11.034;2022-08-25T02:52:14;8.82;;;6.38;;
25057;SDS011;13057;50.978;11.034;2022-08-25T02:54:40;13.32;;;7.40;;
25057;SDS011;13057;50.978;11.034;2022-08-25T02:57:06;13.20;;;6.60;;
25057;SDS011;13057;50.978;11.034;2022-08-25T02:59:32;12.23;;;6.38;;
25057;SDS011;13057;50.978;11.034;2022-08-25T03:01:59;10.85;;;6.80;;
25057;SDS011;13057;50.978;11.034;2022-08-25T03:04:25;9.55;;;6.00;;
25057;SDS011;13057;50.978;11.034;2022-08-25T03:06:51;10.30;;;6.70;;
25057;SDS011;13057;50.978;11.034;2022-08-25T03:09:17;12.30;;;6.07;;
25057;SDS011;13057;50.978;11.034;2022-08-25T03:11:43;11.77;;;5.53;;
25057;SDS011;13057;50.978;11.034;2022-08-25T03:14:09;9.10;;;5.47;;
25057;SDS011;13057;50.978;11.034;2022-08-25T03:16:36;8.82;;;5.32;;
25057;SDS011;13057;50.978;11.034;2022-08-25T03:19:02;9.07;;;5.13;;
25057;SDS011;13057;50.978;11.034;2022-08-25T03:21:29;11.38;;;5.45;;
25057;SDS011;13057;50.978;11.034;2022-08-25T03:23:55;10.45;;;5.30;;
25057;SDS011;13057;50.978;11.034;2022-08-25T03:26:22;14.60;;;5.43;;
25057;SDS011;13057;50.978;11.034;2022-08-25T03:29:00;10.10;;;5.88;;
25057;SDS011;13057;50.978;11.034;2022-08-25T03:31:30;13.05;;;5.70;;
25057;SDS011;13057;50.978;11.034;2022-08-25T03:33:57;15.75;;;5.75;;
25057;SDS011;13057;50.978;11.034;2022-08-25T03:36:24;17.33;;;5.68;;
25057;SDS011;13057;50.978;11.034;2022-08-25T03:38:51;15.38;;;6.28;;
25057;SDS011;13057;50.978;11.034;2022-08-25T03:41:19;23.27;;;6.47;;
25057;SDS011;13057;50.978;11.034;2022-08-25T03:43:47;13.38;;;5.47;;
25057;SDS011;13057;50.978;11.034;2022-08-25T03:46:18;15.38;;;5.30;;
25057;SDS011;13057;50.978;11.034;2022-08-25T03:48:47;15.82;;;6.20;;
25057;SDS011;13057;50.978;11.034;2022-08-25T03:51:18;26.45;;;6.90;;
25057;SDS011;13057;50.978;11.034;2022-08-25T03:53:46;22.02;;;6.07;;
25057;SDS011;13057;50.978;11.034;2022-08-25T03:56:12;27.05;;;6.15;;
25057;SDS011;13057;50.978;11.034;2022-08-25T03:58:37;16.65;;;5.85;;
25057;SDS011;13057;50.978;11.034;2022-08-25T04:01:03;14.38;;;6.03;;
25057;SDS011;13057;50.978;11.034;2022-08-25T04:03:30;33.10;;;6.28;;
25057;SDS011;13057;50.978;11.034;2022-08-25T04:05:59;15.50;;;5.63;;
25057;SDS011;13057;50.978;11.034;2022-08-25T04:08:26;24.38;;;6.35;;
25057;SDS011;13057;50.978;11.034;2022-08-25T04:10:52;25.33;;;5.85;;
25057;SDS011;13057;50.978;11.034;2022-08-25T04:13:19;20.60;;;6.63;;
25057;SDS011;13057;50.978;11.034;2022-08-25T04:15:45;22.67;;;6.30;;
25057;SDS011;13057;50.978;11.034;2022-08-25T04:18:11;18.58;;;6.10;;
25057;SDS011;13057;50.978;11.034;2022-08-25T04:20:38;18.10;;;5.93;;
25057;SDS011;13057;50.978;11.034;2022-08-25T04:23:06;21.98;;;6.28;;
25057;SDS011;13057;50.978;11.034;2022-08-25T04:25:32;17.55;;;5.68;;
25057;SDS011;13057;50.978;11.034;2022-08-25T04:27:59;75.88;;;8.90;;
25057;SDS011;13057;50.978;11.034;2022-08-25T04:30:25;22.40;;;7.10;;
25057;SDS011;13057;50.978;11.034;2022-08-25T04:32:50;26.23;;;7.15;;
25057;SDS011;13057;50.978;11.034;2022-08-25T04:35:16;25.80;;;7.63;;
25057;SDS011;13057;50.978;11.034;2022-08-25T04:37:42;21.52;;;6.75;;
25057;SDS011;13057;50.978;11.034;2022-08-25T04:40:09;16.30;;;7.38;;
25057;SDS011;13057;50.978;11.034;2022-08-25T04:42:35;13.82;;;6.25;;
25057;SDS011;13057;50.978;11.034;2022-08-25T04:45:01;18.13;;;6.75;;
25057;SDS011;13057;50.978;11.034;2022-08-25T04:47:29;18.10;;;6.20;;
25057;SDS011;13057;50.978;11.034;2022-08-25T04:49:55;23.85;;;6.25;;
25057;SDS011;13057;50.978;11.034;2022-08-25T04:52:21;20.08;;;6.70;;
25057;SDS011;13057;50.978;11.034;2022-08-25T04:54:47;27.38;;;6.57;;
25057;SDS011;13057;50.978;11.034;2022-08-25T04:57:12;16.92;;;6.10;;
25057;SDS011;13057;50.978;11.034;2022-08-25T04:59:38;18.55;;;6.03;;
25057;SDS011;13057;50.978;11.034;2022-08-25T05:02:04;18.27;;;6.25;;
25057;SDS011;13057;50.978;11.034;2022-08-25T05:04:31;22.60;;;6.90;;
25057;SDS011;13057;50.978;11.034;2022-08-25T05:06:58;27.67;;;6.63;;
25057;SDS011;13057;50.978;11.034;2022-08-25T05:09:25;22.55;;;6.90;;
25057;SDS011;13057;50.978;11.034;2022-08-25T05:11:51;12.75;;;6.10;;
25057;SDS011;13057;50.978;11.034;2022-08-25T05:14:18;20.15;;;7.35;;
25057;SDS011;13057;50.978;11.034;2022-08-25T05:16:46;15.80;;;6.88;;
25057;SDS011;13057;50.978;11.034;2022-08-25T05:19:13;13.65;;;6.78;;
25057;SDS011;13057;50.978;11.034;2022-08-25T05:21:39;12.88;;;6.70;;
25057;SDS011;13057;50.978;11.034;2022-08-25T05:24:05;19.25;;;7.18;;
25057;SDS011;13057;50.978;11.034;2022-08-25T05:26:32;14.13;;;7.07;;
25057;SDS011;13057;50.978;11.034;2022-08-25T05:29:01;20.05;;;7.75;;
25057;SDS011;13057;50.978;11.034;2022-08-25T05:31:29;23.30;;;7.53;;
25057;SDS011;13057;50.978;11.034;2022-08-25T05:33:56;16.50;;;6.90;;
25057;SDS011;13057;50.978;11.034;2022-08-25T05:36:22;15.10;;;7.22;;
25057;SDS011;13057;50.978;11.034;2022-08-25T05:38:50;15.77;;;7.03;;
25057;SDS011;13057;50.978;11.034;2022-08-25T05:41:17;23.25;;;7.93;;
25057;SDS011;13057;50.978;11.034;2022-08-25T05:43:45;18.17;;;7.57;;
25057;SDS011;13057;50.978;11.034;2022-08-25T05:46:13;16.42;;;7.80;;
25057;SDS011;13057;50.978;11.034;2022-08-25T05:48:40;15.80;;;7.25;;
25057;SDS011;13057;50.978;11.034;2022-08-25T05:51:07;19.30;;;7.53;;
25057;SDS011;13057;50.978;11.034;2022-08-25T05:53:35;22.13;;;7.47;;
25057;SDS011;13057;50.978;11.034;2022-08-25T05:56:01;13.57;;;7.68;;
25057;SDS011;13057;50.978;11.034;2022-08-25T05:58:28;19.17;;;7.25;;
25057;SDS011;13057;50.978;11.034;2022-08-25T06:00:56;15.40;;;7.50;;
25057;SDS011;13057;50.978;11.034;2022-08-25T06:03:43;24.35;;;7.75;;
25057;SDS011;13057;50.978;11.034;2022-08-25T06:06:09;13.48;;;7.03;;
25057;SDS011;13057;50.978;11.034;2022-08-25T06:08:35;14.73;;;7.20;;
25057;SDS011;13057;50.978;11.034;2022-08-25T06:11:01;14.55;;;7.25;;
25057;SDS011;13057;50.978;11.034;2022-08-25T06:13:27;10.18;;;7.50;;
25057;SDS011;13057;50.978;11.034;2022-08-25T06:15:56;19.40;;;7.35;;
25057;SDS011;13057;50.978;11.034;2022-08-25T06:18:22;14.13;;;7.75;;
25057;SDS011;13057;50.978;11.034;2022-08-25T06:20:48;18.60;;;8.18;;
25057;SDS011;13057;50.978;11.034;2022-08-25T06:23:15;16.73;;;7.55;;
25057;SDS011;13057;50.978;11.034;2022-08-25T06:25:47;21.15;;;9.15;;
25057;SDS011;13057;50.978;11.034;2022-08-25T06:28:14;19.30;;;8.18;;
25057;SDS011;13057;50.978;11.034;2022-08-25T06:30:40;13.60;;;8.02;;
25057;SDS011;13057;50.978;11.034;2022-08-25T06:33:06;15.20;;;8.05;;
25057;SDS011;13057;50.978;11.034;2022-08-25T06:35:31;17.35;;;8.20;;
25057;SDS011;13057;50.978;11.034;2022-08-25T06:37:58;15.68;;;8.23;;
25057;SDS011;13057;50.978;11.034;2022-08-25T06:40:24;20.10;;;11.07;;
25057;SDS011;13057;50.978;11.034;2022-08-25T06:42:50;19.50;;;9.75;;
25057;SDS011;13057;50.978;11.034;2022-08-25T06:45:16;18.30;;;11.30;;
25057;SDS011;13057;50.978;11.034;2022-08-25T06:47:42;23.52;;;11.68;;
25057;SDS011;13057;50.978;11.034;2022-08-25T06:50:08;20.58;;;10.70;;
25057;SDS011;13057;50.978;11.034;2022-08-25T06:52:34;20.10;;;10.50;;
25057;SDS011;13057;50.978;11.034;2022-08-25T06:55:01;22.67;;;11.07;;
25057;SDS011;13057;50.978;11.034;2022-08-25T06:57:27;18.85;;;12.27;;
25057;SDS011;13057;50.978;11.034;2022-08-25T06:59:53;22.20;;;11.85;;
25057;SDS011;13057;50.978;11.034;2022-08-25T07:02:19;21.13;;;11.73;;
25057;SDS011;13057;50.978;11.034;2022-08-25T07:04:45;19.02;;;10.48;;
25057;SDS011;13057;50.978;11.034;2022-08-25T07:07:11;16.88;;;10.90;;
25057;SDS011;13057;50.978;11.034;2022-08-25T07:09:37;25.50;;;9.63;;
25057;SDS011;13057;50.978;11.034;2022-08-25T07:12:03;13.70;;;9.95;;
25057;SDS011;13057;50.978;11.034;2022-08-25T07:14:30;19.27;;;10.45;;
25057;SDS011;13057;50.978;11.034;2022-08-25T07:16:56;17.05;;;10.55;;
25057;SDS011;13057;50.978;11.034;2022-08-25T07:19:22;21.83;;;9.63;;
25057;SDS011;13057;50.978;11.034;2022-08-25T07:21:49;16.40;;;8.73;;
25057;SDS011;13057;50.978;11.034;2022-08-25T07:24:17;14.98;;;10.00;;
25057;SDS011;13057;50.978;11.034;2022-08-25T07:26:43;18.33;;;9.77;;
25057;SDS011;13057;50.978;11.034;2022-08-25T07:29:13;15.75;;;8.80;;
25057;SDS011;13057;50.978;11.034;2022-08-25T07:31:44;20.70;;;9.55;;
25057;SDS011;13057;50.978;11.034;2022-08-25T07:34:10;14.48;;;8.45;;
25057;SDS011;13057;50.978;11.034;2022-08-25T07:36:48;15.20;;;8.90;;
25057;SDS011;13057;50.978;11.034;2022-08-25T07:39:13;19.58;;;9.90;;
25057;SDS011;13057;50.978;11.034;2022-08-25T07:41:41;22.40;;;9.82;;
25057;SDS011;13057;50.978;11.034;2022-08-25T07:44:07;18.73;;;9.98;;
25057;SDS011;13057;50.978;11.034;2022-08-25T07:46:35;16.90;;;9.60;;
25057;SDS011;13057;50.978;11.034;2022-08-25T07:49:00;20.60;;;9.98;;
25057;SDS011;13057;50.978;11.034;2022-08-25T07:51:27;21.13;;;10.65;;
25057;SDS011;13057;50.978;11.034;2022-08-25T07:53:53;26.48;;;11.15;;
25057;SDS011;13057;50.978;11.034;2022-08-25T07:56:19;20.13;;;9.93;;
25057;SDS011;13057;50.978;11.034;2022-08-25T07:58:45;16.17;;;8.52;;
25057;SDS011;13057;50.978;11.034;2022-08-25T08:01:13;16.98;;;9.20;;
25057;SDS011;13057;50.978;11.034;2022-08-25T08:03:41;16.13;;;9.77;;
25057;SDS011;13057;50.978;11.034;2022-08-25T08:06:08;18.35;;;10.00;;
25057;SDS011;13057;50.978;11.034;2022-08-25T08:08:39;16.33;;;10.45;;
25057;SDS011;13057;50.978;11.034;2022-08-25T08:11:14;14.85;;;11.05;;
25057;SDS011;13057;50.978;11.034;2022-08-25T08:13:45;16.05;;;9.02;;
25057;SDS011;13057;50.978;11.034;2022-08-25T08:16:13;17.02;;;9.70;;
25057;SDS011;13057;50.978;11.034;2022-08-25T08:18:40;17.58;;;9.60;;
25057;SDS011;13057;50.978;11.034;2022-08-25T08:21:12;17.33;;;10.45;;
25057;SDS011;13057;50.978;11.034;2022-08-25T08:23:40;13.48;;;9.00;;
25057;SDS011;13057;50.978;11.034;2022-08-25T08:26:05;16.20;;;9.93;;
25057;SDS011;13057;50.978;11.034;2022-08-25T08:28:32;16.80;;;9.68;;
25057;SDS011;13057;50.978;11.034;2022-08-25T08:30:57;17.35;;;10.40;;
25057;SDS011;13057;50.978;11.034;2022-08-25T08:33:23;17.45;;;9.15;;
25057;SDS011;13057;50.978;11.034;2022-08-25T08:35:56;22.83;;;9.95;;
25057;SDS011;13057;50.978;11.034;2022-08-25T08:38:30;13.13;;;9.35;;
25057;SDS011;13057;50.978;11.034;2022-08-25T08:41:08;18.42;;;9.77;;
25057;SDS011;13057;50.978;11.034;2022-08-25T08:43:55;15.32;;;9.82;;
25057;SDS011;13057;50.978;11.034;2022-08-25T08:46:36;20.63;;;9.10;;
25057;SDS011;13057;50.978;11.034;2022-08-25T08:49:11;16.48;;;8.95;;
25057;SDS011;13057;50.978;11.034;2022-08-25T08:51:50;15.52;;;9.60;;
25057;SDS011;13057;50.978;11.034;2022-08-25T08:54:22;15.65;;;10.57;;
25057;SDS011;13057;50.978;11.034;2022-08-25T08:56:51;15.95;;;9.10;;
25057;SDS011;13057;50.978;11.034;2022-08-25T08:59:23;15.70;;;8.90;;
25057;SDS011;13057;50.978;11.034;2022-08-25T09:01:55;15.93;;;8.82;;
25057;SDS011;13057;50.978;11.034;2022-08-25T09:04:28;14.85;;;8.75;;
25057;SDS011;13057;50.978;11.034;2022-08-25T09:07:00;19.15;;;8.93;;
25057;SDS011;13057;50.978;11.034;2022-08-25T09:09:33;12.90;;;8.82;;
25057;SDS011;13057;50.978;11.034;2022-08-25T09:12:04;18.13;;;8.70;;
25057;SDS011;13057;50.978;11.034;2022-08-25T09:14:45;14.93;;;8.13;;
25057;SDS011;13057;50.978;11.034;2022-08-25T09:17:34;12.60;;;8.65;;
25057;SDS011;13057;50.978;11.034;2022-08-25T09:20:11;16.75;;;8.25;;
25057;SDS011;13057;50.978;11.034;2022-08-25T09:23:00;14.60;;;8.32;;
25057;SDS011;13057;50.978;11.034;2022-08-25T09:25:49;11.80;;;7.45;;
25057;SDS011;13057;50.978;11.034;2022-08-25T09:28:27;15.50;;;9.55;;
25057;SDS011;13057;50.978;11.034;2022-08-25T09:31:00;18.05;;;8.48;;
25057;SDS011;13057;50.978;11.034;2022-08-25T09:33:33;17.25;;;8.63;;
25057;SDS011;13057;50.978;11.034;2022-08-25T09:35:59;12.95;;;8.35;;
25057;SDS011;13057;50.978;11.034;2022-08-25T09:38:26;19.80;;;8.45;;
25057;SDS011;13057;50.978;11.034;2022-08-25T09:40:56;14.77;;;8.10;;
25057;SDS011;13057;50.978;11.034;2022-08-25T09:46:11;18.35;;;9.40;;
25057;SDS011;13057;50.978;11.034;2022-08-25T09:48:48;15.15;;;8.27;;
25057;SDS011;13057;50.978;11.034;2022-08-25T09:51:27;17.95;;;8.60;;
25057;SDS011;13057;50.978;11.034;2022-08-25T09:53:59;10.82;;;7.47;;
25057;SDS011;13057;50.978;11.034;2022-08-25T09:56:47;14.95;;;8.20;;
25057;SDS011;13057;50.978;11.034;2022-08-25T09:59:19;12.38;;;7.20;;
25057;SDS011;13057;50.978;11.034;2022-08-25T10:01:51;15.93;;;8.07;;
25057;SDS011;13057;50.978;11.034;2022-08-25T10:04:28;19.10;;;8.70;;
25057;SDS011;13057;50.978;11.034;2022-08-25T10:06:57;18.10;;;7.97;;
25057;SDS011;13057;50.978;11.034;2022-08-25T10:09:30;12.57;;;7.80;;
25057;SDS011;13057;50.978;11.034;2022-08-25T10:11:59;12.52;;;8.20;;
25057;SDS011;13057;50.978;11.034;2022-08-25T10:14:32;16.15;;;8.85;;
25057;SDS011;13057;50.978;11.034;2022-08-25T10:17:10;17.55;;;8.77;;
25057;SDS011;13057;50.978;11.034;2022-08-25T10:20:11;11.27;;;8.35;;
25057;SDS011;13057;50.978;11.034;2022-08-25T10:22:42;17.33;;;7.93;;
25057;SDS011;13057;50.978;11.034;2022-08-25T10:25:12;17.25;;;8.00;;
25057;SDS011;13057;50.978;11.034;2022-08-25T10:30:39;11.25;;;7.15;;
25057;SDS011;13057;50.978;11.034;2022-08-25T10:33:24;18.05;;;8.07;;
25057;SDS011;13057;50.978;11.034;2022-08-25T10:36:19;13.40;;;7.47;;
25057;SDS011;13057;50.978;11.034;2022-08-25T10:38:51;13.27;;;7.90;;
25057;SDS011;13057;50.978;11.034;2022-08-25T10:41:25;11.23;;;7.05;;
25057;SDS011;13057;50.978;11.034;2022-08-25T10:44:12;11.05;;;7.13;;
25057;SDS011;13057;50.978;11.034;2022-08-25T10:50:03;11.63;;;6.72;;
25057;SDS011;13057;50.978;11.034;2022-08-25T10:52:52;16.33;;;7.75;;
25057;SDS011;13057;50.978;11.034;2022-08-25T10:55:37;13.00;;;7.33;;
25057;SDS011;13057;50.978;11.034;2022-08-25T10:58:15;13.20;;;7.10;;
25057;SDS011;13057;50.978;11.034;2022-08-25T11:00:58;11.45;;;7.10;;
25057;SDS011;13057;50.978;11.034;2022-08-25T11:03:48;11.25;;;7.80;;
25057;SDS011;13057;50.978;11.034;2022-08-25T11:09:20;20.67;;;7.65;;
25057;SDS011;13057;50.978;11.034;2022-08-25T11:11:56;10.93;;;7.00;;
25057;SDS011;13057;50.978;11.034;2022-08-25T11:14:30;9.38;;;6.03;;
25057;SDS011;13057;50.978;11.034;2022-08-25T11:17:04;13.88;;;7.07;;
25057;SDS011;13057;50.978;11.034;2022-08-25T11:19:44;9.70;;;6.80;;
25057;SDS011;13057;50.978;11.034;2022-08-25T11:22:25;9.40;;;6.13;;
25057;SDS011;13057;50.978;11.034;2022-08-25T11:25:03;10.10;;;6.70;;
25057;SDS011;13057;50.978;11.034;2022-08-25T11:27:41;11.52;;;6.15;;
25057;SDS011;13057;50.978;11.034;2022-08-25T11:30:14;9.70;;;6.18;;
25057;SDS011;13057;50.978;11.034;2022-08-25T11:32:43;8.68;;;6.13;;
25057;SDS011;13057;50.978;11.034;2022-08-25T11:35:13;12.10;;;7.32;;
25057;SDS011;13057;50.978;11.034;2022-08-25T11:37:45;10.00;;;6.13;;
25057;SDS011;13057;50.978;11.034;2022-08-25T11:40:31;15.73;;;6.90;;
25057;SDS011;13057;50.978;11.034;2022-08-25T11:43:09;11.23;;;6.75;;
25057;SDS011;13057;50.978;11.034;2022-08-25T11:46:00;13.30;;;6.15;;
25057;SDS011;13057;50.978;11.034;2022-08-25T11:48:41;9.40;;;6.40;;
25057;SDS011;13057;50.978;11.034;2022-08-25T11:51:32;11.85;;;6.00;;
25057;SDS011;13057;50.978;11.034;2022-08-25T11:54:13;12.45;;;6.20;;
25057;SDS011;13057;50.978;11.034;2022-08-25T11:56:54;10.90;;;5.90;;
25057;SDS011;13057;50.978;11.034;2022-08-25T12:02:30;11.95;;;6.00;;
25057;SDS011;13057;50.978;11.034;2022-08-25T12:05:04;12.40;;;6.40;;
25057;SDS011;13057;50.978;11.034;2022-08-25T12:13:24;12.15;;;5.97;;
25057;SDS011;13057;50.978;11.034;2022-08-25T12:16:04;10.68;;;5.97;;
25057;SDS011;13057;50.978;11.034;2022-08-25T12:18:40;13.77;;;6.03;;
25057;SDS011;13057;50.978;11.034;2022-08-25T12:21:08;6.97;;;5.97;;
25057;SDS011;13057;50.978;11.034;2022-08-25T12:23:37;10.75;;;6.20;;
25057;SDS011;13057;50.978;11.034;2022-08-25T12:29:00;11.82;;;5.82;;
25057;SDS011;13057;50.978;11.034;2022-08-25T12:34:40;11.77;;;5.82;;
25057;SDS011;13057;50.978;11.034;2022-08-25T12:37:17;19.48;;;5.97;;
25057;SDS011;13057;50.978;11.034;2022-08-25T12:42:31;13.20;;;5.82;;
25057;SDS011;13057;50.978;11.034;2022-08-25T12:45:13;16.17;;;6.32;;
25057;SDS011;13057;50.978;11.034;2022-08-25T12:48:38;11.10;;;6.15;;
25057;SDS011;13057;50.978;11.034;2022-08-25T12:51:07;11.15;;;5.60;;
25057;SDS011;13057;50.978;11.034;2022-08-25T12:53:45;8.93;;;5.70;;
25057;SDS011;13057;50.978;11.034;2022-08-25T12:56:21;10.38;;;5.60;;
25057;SDS011;13057;50.978;11.034;2022-08-25T12:59:18;8.38;;;5.28;;
25057;SDS011;13057;50.978;11.034;2022-08-25T13:01:52;14.00;;;5.78;;
25057;SDS011;13057;50.978;11.034;2022-08-25T13:04:45;8.38;;;5.35;;
25057;SDS011;13057;50.978;11.034;2022-08-25T13:07:40;15.45;;;5.57;;
25057;SDS011;13057;50.978;11.034;2022-08-25T13:15:39;12.38;;;5.68;;
25057;SDS011;13057;50.978;11.034;2022-08-25T13:18:18;9.52;;;5.60;;
25057;SDS011;13057;50.978;11.034;2022-08-25T13:20:52;10.93;;;5.47;;
25057;SDS011;13057;50.978;11.034;2022-08-25T13:23:27;9.15;;;5.68;;
25057;SDS011;13057;50.978;11.034;2022-08-25T13:25:55;8.80;;;5.20;;
25057;SDS011;13057;50.978;11.034;2022-08-25T13:28:23;8.95;;;5.70;;
25057;SDS011;13057;50.978;11.034;2022-08-25T13:30:56;8.50;;;5.40;;
25057;SDS011;13057;50.978;11.034;2022-08-25T13:33:28;9.82;;;5.32;;
25057;SDS011;13057;50.978;11.034;2022-08-25T13:35:56;7.32;;;5.10;;
25057;SDS011;13057;50.978;11.034;2022-08-25T13:38:35;12.95;;;5.25;;
25057;SDS011;13057;50.978;11.034;2022-08-25T13:41:03;9.77;;;5.47;;
25057;SDS011;13057;50.978;11.034;2022-08-25T13:43:30;6.47;;;5.43;;
25057;SDS011;13057;50.978;11.034;2022-08-25T13:45:56;8.18;;;5.10;;
25057;SDS011;13057;50.978;11.034;2022-08-25T13:48:32;12.35;;;5.10;;
25057;SDS011;13057;50.978;11.034;2022-08-25T13:51:08;9.50;;;5.45;;
25057;SDS011;13057;50.978;11.034;2022-08-25T13:53:48;11.40;;;5.45;;
25057;SDS011;13057;50.978;11.034;2022-08-25T13:56:21;8.45;;;5.72;;
25057;SDS011;13057;50.978;11.034;2022-08-25T13:58:52;8.55;;;5.10;;
25057;SDS011;13057;50.978;11.034;2022-08-25T14:01:21;7.40;;;4.90;;
25057;SDS011;13057;50.978;11.034;2022-08-25T14:03:51;10.77;;;4.90;;
25057;SDS011;13057;50.978;11.034;2022-08-25T14:06:20;9.27;;;5.57;;
25057;SDS011;13057;50.978;11.034;2022-08-25T14:11:41;12.02;;;5.53;;
25057;SDS011;13057;50.978;11.034;2022-08-25T14:14:29;10.52;;;5.50;;
25057;SDS011;13057;50.978;11.034;2022-08-25T14:16:58;9.32;;;5.40;;
25057;SDS011;13057;50.978;11.034;2022-08-25T14:19:34;11.15;;;5.10;;
25057;SDS011;13057;50.978;11.034;2022-08-25T14:22:09;10.18;;;5.13;;
25057;SDS011;13057;50.978;11.034;2022-08-25T14:24:37;11.05;;;5.03;;
25057;SDS011;13057;50.978;11.034;2022-08-25T14:27:03;6.25;;;4.57;;
25057;SDS011;13057;50.978;11.034;2022-08-25T14:29:29;7.88;;;4.95;;
25057;SDS011;13057;50.978;11.034;2022-08-25T14:31:56;9.90;;;5.75;;
25057;SDS011;13057;50.978;11.034;2022-08-25T14:34:25;11.57;;;5.07;;
25057;SDS011;13057;50.978;11.034;2022-08-25T14:36:54;9.57;;;5.10;;
25057;SDS011;13057;50.978;11.034;2022-08-25T14:39:21;9.02;;;4.82;;
25057;SDS011;13057;50.978;11.034;2022-08-25T14:41:47;15.43;;;4.90;;
25057;SDS011;13057;50.978;11.034;2022-08-25T14:44:15;15.68;;;5.63;;
25057;SDS011;13057;50.978;11.034;2022-08-25T14:46:51;9.85;;;5.00;;
25057;SDS011;13057;50.978;11.034;2022-08-25T14:49:21;10.27;;;5.10;;
25057;SDS011;13057;50.978;11.034;2022-08-25T14:51:51;7.82;;;5.15;;
25057;SDS011;13057;50.978;11.034;2022-08-25T14:54:25;7.90;;;4.85;;
25057;SDS011;13057;50.978;11.034;2022-08-25T14:56:52;8.25;;;5.07;;
25057;SDS011;13057;50.978;11.034;2022-08-25T14:59:18;9.07;;;4.50;;
25057;SDS011;13057;50.978;11.034;2022-08-25T15:01:44;7.22;;;4.88;;
25057;SDS011;13057;50.978;11.034;2022-08-25T15:04:12;9.25;;;5.00;;
25057;SDS011;13057;50.978;11.034;2022-08-25T15:06:41;9.88;;;4.93;;
25057;SDS011;13057;50.978;11.034;2022-08-25T15:09:08;6.90;;;4.97;;
25057;SDS011;13057;50.978;11.034;2022-08-25T15:11:38;5.60;;;4.57;;
25057;SDS011;13057;50.978;11.034;2022-08-25T15:14:06;12.50;;;7.00;;
25057;SDS011;13057;50.978;11.034;2022-08-25T15:16:41;6.30;;;4.75;;
25057;SDS011;13057;50.978;11.034;2022-08-25T15:19:13;8.20;;;4.85;;
25057;SDS011;13057;50.978;11.034;2022-08-25T15:21:40;10.35;;;4.55;;